ARG1841 SAWC-SABE
Flight info
| Callsign | ARG1841 |
|---|---|
| Flight time | N/A |
| Altitude | 39000 |
| Route | BOKUK UW48 CRV UP664 TRE UT693 BCA UW22 VALOS |
| Aircraft | B38M/M-SDE1FGHILORVWXY/HB1 |
Departure
| Time | 2026-04-27 13:53 |
|---|---|
| Airport | El Calafate - Commander Armando Tola International Airport (SAWC) |
Arrival
| Time | N/A |
|---|---|
| Airport | Aeroparque Jorge Newbery (SABE) |
| Time | Latitude | Longitude | Altitude | Speed | Heading |
|---|---|---|---|---|---|
| 2026-04-27 13:28 | -50.28338 | -72.05385 | 643 ft | 0 kts | 175° |
| 2026-04-27 13:45 | -50.28327 | -72.05387 | 646 ft | 4 kts | 180° |
| 2026-04-27 13:46 | -50.28313 | -72.05382 | 644 ft | 4 kts | 200° |
| 2026-04-27 13:46 | -50.28298 | -72.05369 | 644 ft | 4 kts | 221° |
| 2026-04-27 13:46 | -50.28287 | -72.05351 | 644 ft | 0 kts | 233° |
| 2026-04-27 13:48 | -50.28287 | -72.05352 | 644 ft | 1 kts | 234° |
| 2026-04-27 13:49 | -50.28286 | -72.05397 | 644 ft | 10 kts | 289° |
| 2026-04-27 13:49 | -50.28269 | -72.05545 | 644 ft | 16 kts | 266° |
| 2026-04-27 13:49 | -50.28280 | -72.05737 | 644 ft | 19 kts | 264° |
| 2026-04-27 13:49 | -50.28295 | -72.05957 | 644 ft | 22 kts | 265° |
| 2026-04-27 13:50 | -50.28308 | -72.06205 | 643 ft | 24 kts | 264° |
| 2026-04-27 13:50 | -50.28303 | -72.06361 | 643 ft | 14 kts | 302° |
| 2026-04-27 13:50 | -50.28210 | -72.06397 | 643 ft | 16 kts | 25° |
| 2026-04-27 13:50 | -50.28133 | -72.06258 | 645 ft | 18 kts | 52° |
| 2026-04-27 13:51 | -50.28066 | -72.06258 | 645 ft | 12 kts | 269° |
| 2026-04-27 13:51 | -50.28081 | -72.06398 | 646 ft | 14 kts | 259° |
| 2026-04-27 13:51 | -50.28096 | -72.06573 | 645 ft | 18 kts | 265° |
| 2026-04-27 13:51 | -50.28107 | -72.06761 | 645 ft | 13 kts | 264° |
| 2026-04-27 13:52 | -50.28128 | -72.06884 | 647 ft | 13 kts | 240° |
| 2026-04-27 13:52 | -50.28168 | -72.07030 | 645 ft | 16 kts | 265° |
| 2026-04-27 13:52 | -50.28128 | -72.07059 | 645 ft | 8 kts | 46° |
| 2026-04-27 13:52 | -50.28119 | -72.07013 | 645 ft | 0 kts | 84° |
| 2026-04-27 13:53 | -50.28090 | -72.06499 | 645 ft | 91 kts | 84° |
| 2026-04-27 13:53 | -50.28005 | -72.05109 | 685 ft | 159 kts | 85° |
| 2026-04-27 13:53 | -50.27902 | -72.03281 | 1324 ft | 177 kts | 85° |
| 2026-04-27 13:54 | -50.27789 | -72.01237 | 2052 ft | 202 kts | 85° |
| 2026-04-27 13:54 | -50.27668 | -71.98912 | 2800 ft | 226 kts | 85° |
| 2026-04-27 13:54 | -50.27508 | -71.96374 | 3723 ft | 243 kts | 84° |
| 2026-04-27 13:54 | -50.27285 | -71.93673 | 4660 ft | 256 kts | 72° |
| 2026-04-27 13:55 | -50.26424 | -71.91287 | 5907 ft | 254 kts | 44° |
| 2026-04-27 13:55 | -50.24951 | -71.89784 | 7044 ft | 255 kts | 17° |
| 2026-04-27 13:55 | -50.23203 | -71.89496 | 8204 ft | 255 kts | 351° |
| 2026-04-27 13:55 | -50.21561 | -71.90421 | 9194 ft | 258 kts | 324° |
| 2026-04-27 13:56 | -50.20265 | -71.92330 | 10273 ft | 258 kts | 309° |
| 2026-04-27 13:56 | -50.18869 | -71.94221 | 11187 ft | 273 kts | 324° |
| 2026-04-27 13:56 | -50.17036 | -71.95249 | 11938 ft | 297 kts | 345° |
| 2026-04-27 13:56 | -50.14889 | -71.95513 | 12658 ft | 313 kts | 350° |
| 2026-04-27 13:57 | -50.12674 | -71.95727 | 13428 ft | 322 kts | 351° |
| 2026-04-27 13:57 | -50.10456 | -71.95925 | 14376 ft | 325 kts | 350° |
| 2026-04-27 13:57 | -50.08184 | -71.96121 | 15230 ft | 329 kts | 351° |
| 2026-04-27 13:57 | -50.05875 | -71.96225 | 15919 ft | 343 kts | 358° |
| 2026-04-27 13:58 | -50.03493 | -71.95234 | 16419 ft | 367 kts | 22° |
| 2026-04-27 13:58 | -50.01314 | -71.93051 | 17002 ft | 379 kts | 32° |
| 2026-04-27 13:58 | -49.99111 | -71.90694 | 17578 ft | 387 kts | 32° |
| 2026-04-27 13:58 | -49.96888 | -71.88333 | 18342 ft | 389 kts | 31° |
| 2026-04-27 13:59 | -49.94636 | -71.85943 | 19028 ft | 393 kts | 31° |
| 2026-04-27 13:59 | -49.92366 | -71.83538 | 19690 ft | 397 kts | 31° |
| 2026-04-27 13:59 | -49.90070 | -71.81109 | 20324 ft | 400 kts | 31° |
| 2026-04-27 13:59 | -49.87758 | -71.78666 | 20946 ft | 404 kts | 31° |
| 2026-04-27 14:00 | -49.85424 | -71.76200 | 21546 ft | 408 kts | 31° |
| 2026-04-27 14:00 | -49.83072 | -71.73719 | 22158 ft | 411 kts | 31° |
| 2026-04-27 14:00 | -49.80695 | -71.71216 | 22724 ft | 415 kts | 31° |
| 2026-04-27 14:00 | -49.78302 | -71.68697 | 23320 ft | 417 kts | 31° |
| 2026-04-27 14:01 | -49.75887 | -71.66161 | 23855 ft | 422 kts | 31° |
| 2026-04-27 14:01 | -49.73448 | -71.63601 | 24381 ft | 425 kts | 31° |
| 2026-04-27 14:01 | -49.70990 | -71.61024 | 24917 ft | 429 kts | 31° |
| 2026-04-27 14:01 | -49.68507 | -71.58425 | 25393 ft | 433 kts | 31° |
| 2026-04-27 14:02 | -49.65995 | -71.55800 | 25873 ft | 438 kts | 30° |
| 2026-04-27 14:02 | -49.63493 | -71.53186 | 26342 ft | 442 kts | 30° |
| 2026-04-27 14:02 | -49.60937 | -71.50521 | 26802 ft | 445 kts | 30° |
| 2026-04-27 14:02 | -49.58357 | -71.47832 | 27227 ft | 450 kts | 30° |
| 2026-04-27 14:03 | -49.55756 | -71.45112 | 27652 ft | 454 kts | 32° |
| 2026-04-27 14:03 | -49.53186 | -71.42241 | 28069 ft | 458 kts | 32° |
| 2026-04-27 14:03 | -49.50592 | -71.39352 | 28471 ft | 462 kts | 32° |
| 2026-04-27 14:03 | -49.47973 | -71.36451 | 28864 ft | 466 kts | 32° |
| 2026-04-27 14:04 | -49.45330 | -71.33532 | 29250 ft | 469 kts | 32° |
| 2026-04-27 14:04 | -49.42671 | -71.30598 | 29654 ft | 472 kts | 32° |
| 2026-04-27 14:04 | -49.39988 | -71.27644 | 30022 ft | 475 kts | 32° |
| 2026-04-27 14:04 | -49.37298 | -71.24685 | 30390 ft | 478 kts | 32° |
| 2026-04-27 14:05 | -49.34578 | -71.21697 | 30758 ft | 481 kts | 32° |
| 2026-04-27 14:05 | -49.31852 | -71.18707 | 31115 ft | 484 kts | 32° |
| 2026-04-27 14:05 | -49.29098 | -71.15691 | 31472 ft | 487 kts | 32° |
| 2026-04-27 14:05 | -49.26335 | -71.12669 | 31805 ft | 490 kts | 32° |
| 2026-04-27 14:06 | -49.23561 | -71.09639 | 32141 ft | 492 kts | 32° |
| 2026-04-27 14:06 | -49.20760 | -71.06583 | 32486 ft | 495 kts | 32° |
| 2026-04-27 14:06 | -49.17957 | -71.03531 | 32807 ft | 497 kts | 32° |
| 2026-04-27 14:06 | -49.15131 | -71.00458 | 33116 ft | 500 kts | 32° |
| 2026-04-27 14:07 | -49.12283 | -70.97364 | 33440 ft | 502 kts | 32° |
| 2026-04-27 14:07 | -49.09434 | -70.94269 | 33753 ft | 505 kts | 32° |
| 2026-04-27 14:07 | -49.06558 | -70.91146 | 34072 ft | 508 kts | 32° |
| 2026-04-27 14:07 | -49.03704 | -70.88052 | 34371 ft | 510 kts | 32° |
| 2026-04-27 14:08 | -49.00768 | -70.84873 | 34737 ft | 511 kts | 32° |
| 2026-04-27 14:08 | -48.97874 | -70.81742 | 35137 ft | 510 kts | 32° |
| 2026-04-27 14:08 | -48.94979 | -70.78618 | 35485 ft | 510 kts | 32° |
| 2026-04-27 14:08 | -48.92084 | -70.75495 | 35837 ft | 510 kts | 32° |
| 2026-04-27 14:09 | -48.89222 | -70.72415 | 36214 ft | 509 kts | 32° |
| 2026-04-27 14:09 | -48.86331 | -70.69307 | 36540 ft | 509 kts | 32° |
| 2026-04-27 14:09 | -48.83436 | -70.66200 | 36865 ft | 509 kts | 32° |
| 2026-04-27 14:09 | -48.80553 | -70.63109 | 37291 ft | 506 kts | 32° |
| 2026-04-27 14:10 | -48.77686 | -70.60040 | 37687 ft | 503 kts | 32° |
| 2026-04-27 14:10 | -48.74834 | -70.56991 | 38054 ft | 501 kts | 32° |
| 2026-04-27 14:10 | -48.72048 | -70.53821 | 38297 ft | 503 kts | 41° |
| 2026-04-27 14:10 | -48.69733 | -70.49863 | 38595 ft | 502 kts | 51° |
| 2026-04-27 14:11 | -48.67506 | -70.45773 | 38745 ft | 505 kts | 50° |
| 2026-04-27 14:11 | -48.65272 | -70.41677 | 38969 ft | 505 kts | 50° |
| 2026-04-27 14:11 | -48.63049 | -70.37568 | 39209 ft | 505 kts | 50° |
| 2026-04-27 14:11 | -48.60827 | -70.33450 | 39410 ft | 506 kts | 50° |
| 2026-04-27 14:12 | -48.58604 | -70.29334 | 39629 ft | 505 kts | 50° |
| 2026-04-27 14:12 | -48.56378 | -70.25217 | 39843 ft | 505 kts | 50° |
| 2026-04-27 14:12 | -48.54154 | -70.21111 | 40016 ft | 505 kts | 50° |
| 2026-04-27 14:12 | -48.51934 | -70.17016 | 40223 ft | 505 kts | 50° |
| 2026-04-27 14:13 | -48.49704 | -70.12912 | 40400 ft | 505 kts | 50° |
| 2026-04-27 14:13 | -48.47477 | -70.08817 | 40564 ft | 505 kts | 50° |
| 2026-04-27 14:13 | -48.45212 | -70.04792 | 40727 ft | 504 kts | 43° |
| 2026-04-27 14:13 | -48.42510 | -70.01479 | 40821 ft | 500 kts | 32° |
| 2026-04-27 14:14 | -48.39668 | -69.98445 | 40821 ft | 502 kts | 34° |
| 2026-04-27 14:14 | -48.34027 | -69.92389 | 40842 ft | 501 kts | 33° |
| 2026-04-27 14:15 | -48.28327 | -69.86373 | 40828 ft | 500 kts | 33° |
| 2026-04-27 14:15 | -48.22620 | -69.80374 | 40834 ft | 501 kts | 33° |
| 2026-04-27 14:16 | -48.16914 | -69.74393 | 40842 ft | 501 kts | 33° |
| 2026-04-27 14:16 | -48.11192 | -69.68412 | 40842 ft | 501 kts | 33° |
| 2026-04-27 14:17 | -48.05481 | -69.62458 | 40840 ft | 500 kts | 33° |
| 2026-04-27 14:17 | -47.99763 | -69.56515 | 40841 ft | 500 kts | 33° |
| 2026-04-27 14:18 | -47.94045 | -69.50587 | 40851 ft | 501 kts | 33° |
| 2026-04-27 14:18 | -47.88326 | -69.44674 | 40850 ft | 500 kts | 33° |
| 2026-04-27 14:19 | -47.82606 | -69.38777 | 40850 ft | 500 kts | 33° |
| 2026-04-27 14:19 | -47.76886 | -69.32895 | 40849 ft | 500 kts | 33° |
| 2026-04-27 14:20 | -47.71161 | -69.27026 | 40854 ft | 500 kts | 33° |
| 2026-04-27 14:20 | -47.65434 | -69.21169 | 40860 ft | 500 kts | 33° |
| 2026-04-27 14:21 | -47.59744 | -69.15365 | 40860 ft | 500 kts | 33° |
| 2026-04-27 14:21 | -47.54018 | -69.09541 | 40858 ft | 499 kts | 33° |
| 2026-04-27 14:22 | -47.48293 | -69.03734 | 40858 ft | 499 kts | 33° |
| 2026-04-27 14:22 | -47.42569 | -68.97943 | 40870 ft | 499 kts | 32° |
| 2026-04-27 14:23 | -47.36839 | -68.92163 | 40870 ft | 499 kts | 32° |
| 2026-04-27 14:23 | -47.31108 | -68.86395 | 40856 ft | 498 kts | 32° |
| 2026-04-27 14:24 | -47.25374 | -68.80641 | 40856 ft | 498 kts | 32° |
| 2026-04-27 14:24 | -47.19639 | -68.74901 | 40872 ft | 499 kts | 32° |
| 2026-04-27 14:25 | -47.13899 | -68.69170 | 40859 ft | 498 kts | 32° |
| 2026-04-27 14:25 | -47.08164 | -68.63461 | 40858 ft | 498 kts | 32° |
| 2026-04-27 14:26 | -47.02424 | -68.57762 | 40873 ft | 498 kts | 32° |
| 2026-04-27 14:26 | -46.96688 | -68.52081 | 40874 ft | 497 kts | 32° |
| 2026-04-27 14:27 | -46.90950 | -68.46414 | 40875 ft | 497 kts | 32° |
| 2026-04-27 14:27 | -46.85211 | -68.40760 | 40870 ft | 497 kts | 32° |
| 2026-04-27 14:28 | -46.79470 | -68.35119 | 40871 ft | 497 kts | 32° |
| 2026-04-27 14:28 | -46.73726 | -68.29490 | 40876 ft | 497 kts | 32° |
| 2026-04-27 14:29 | -46.68017 | -68.23911 | 40875 ft | 497 kts | 32° |
| 2026-04-27 14:29 | -46.62271 | -68.18308 | 40883 ft | 497 kts | 32° |
| 2026-04-27 14:30 | -46.56516 | -68.12712 | 40877 ft | 497 kts | 32° |
| 2026-04-27 14:30 | -46.50771 | -68.07141 | 40879 ft | 497 kts | 32° |
| 2026-04-27 14:31 | -46.45016 | -68.01574 | 40878 ft | 497 kts | 32° |
| 2026-04-27 14:31 | -46.39255 | -67.96015 | 40888 ft | 496 kts | 32° |
| 2026-04-27 14:32 | -46.33544 | -67.90519 | 40876 ft | 496 kts | 32° |
| 2026-04-27 14:32 | -46.27786 | -67.84992 | 40881 ft | 497 kts | 32° |
| 2026-04-27 14:33 | -46.22023 | -67.79474 | 40877 ft | 497 kts | 32° |
| 2026-04-27 14:33 | -46.17197 | -67.74864 | 40877 ft | 497 kts | 32° |
| 2026-04-27 14:34 | -46.11422 | -67.69361 | 40875 ft | 497 kts | 32° |
| 2026-04-27 14:34 | -46.04719 | -67.62990 | 40884 ft | 497 kts | 32° |
| 2026-04-27 14:35 | -45.99927 | -67.58446 | 40889 ft | 496 kts | 32° |
| 2026-04-27 14:35 | -45.94161 | -67.52990 | 40885 ft | 496 kts | 32° |
| 2026-04-27 14:36 | -45.88392 | -67.47544 | 40890 ft | 495 kts | 32° |
| 2026-04-27 14:36 | -45.82628 | -67.42117 | 40884 ft | 495 kts | 32° |
| 2026-04-27 14:37 | -45.76824 | -67.36772 | 40886 ft | 495 kts | 29° |
| 2026-04-27 14:37 | -45.70924 | -67.31685 | 40890 ft | 495 kts | 30° |
| 2026-04-27 14:38 | -45.65040 | -67.26578 | 40886 ft | 494 kts | 30° |
| 2026-04-27 14:38 | -45.59167 | -67.21489 | 40893 ft | 494 kts | 29° |
| 2026-04-27 14:39 | -45.53292 | -67.16412 | 40889 ft | 494 kts | 29° |
| 2026-04-27 14:39 | -45.47448 | -67.11373 | 40884 ft | 493 kts | 29° |
| 2026-04-27 14:40 | -45.41570 | -67.06318 | 40890 ft | 493 kts | 29° |
| 2026-04-27 14:40 | -45.35691 | -67.01274 | 40890 ft | 493 kts | 29° |
| 2026-04-27 14:41 | -45.29808 | -66.96240 | 40887 ft | 493 kts | 29° |
| 2026-04-27 14:41 | -45.23925 | -66.91217 | 40899 ft | 493 kts | 29° |
| 2026-04-27 14:42 | -45.18039 | -66.86204 | 40899 ft | 493 kts | 29° |
| 2026-04-27 14:42 | -45.12160 | -66.81211 | 40893 ft | 492 kts | 29° |
| 2026-04-27 14:43 | -45.06284 | -66.76230 | 40896 ft | 492 kts | 29° |
| 2026-04-27 14:43 | -45.00445 | -66.71292 | 40906 ft | 492 kts | 29° |
| 2026-04-27 14:44 | -44.94562 | -66.66339 | 40908 ft | 492 kts | 29° |
| 2026-04-27 14:44 | -44.88684 | -66.61400 | 40914 ft | 491 kts | 29° |
| 2026-04-27 14:45 | -44.82805 | -66.56472 | 40915 ft | 492 kts | 29° |
| 2026-04-27 14:45 | -44.76925 | -66.51555 | 40916 ft | 491 kts | 29° |
| 2026-04-27 14:46 | -44.71043 | -66.46649 | 40922 ft | 491 kts | 29° |
| 2026-04-27 14:46 | -44.65166 | -66.41757 | 40926 ft | 492 kts | 29° |
| 2026-04-27 14:47 | -44.59277 | -66.36868 | 40934 ft | 491 kts | 29° |
| 2026-04-27 14:47 | -44.53406 | -66.32006 | 40934 ft | 490 kts | 29° |
| 2026-04-27 14:48 | -44.47527 | -66.27148 | 40944 ft | 491 kts | 29° |
| 2026-04-27 14:48 | -44.38748 | -66.19914 | 40951 ft | 489 kts | 29° |
| 2026-04-27 14:49 | -44.32881 | -66.15095 | 40951 ft | 490 kts | 29° |
| 2026-04-27 14:49 | -44.27006 | -66.10280 | 40960 ft | 489 kts | 29° |
| 2026-04-27 14:50 | -44.21136 | -66.05481 | 40959 ft | 489 kts | 29° |
| 2026-04-27 14:50 | -44.15269 | -66.00695 | 40962 ft | 489 kts | 29° |
| 2026-04-27 14:51 | -44.09399 | -65.95918 | 40973 ft | 489 kts | 29° |
| 2026-04-27 14:51 | -44.03526 | -65.91148 | 40970 ft | 489 kts | 29° |
| 2026-04-27 14:52 | -43.97658 | -65.86396 | 40972 ft | 489 kts | 29° |
| 2026-04-27 14:52 | -43.91780 | -65.81649 | 40979 ft | 489 kts | 29° |
| 2026-04-27 14:53 | -43.85900 | -65.76910 | 40981 ft | 489 kts | 28° |
| 2026-04-27 14:53 | -43.80019 | -65.72181 | 40981 ft | 489 kts | 28° |
| 2026-04-27 14:54 | -43.74137 | -65.67461 | 40988 ft | 489 kts | 28° |
| 2026-04-27 14:54 | -43.68244 | -65.62744 | 40991 ft | 490 kts | 28° |
| 2026-04-27 14:55 | -43.62346 | -65.58034 | 40989 ft | 490 kts | 28° |
| 2026-04-27 14:55 | -43.56485 | -65.53364 | 40990 ft | 490 kts | 28° |
| 2026-04-27 14:56 | -43.50582 | -65.48671 | 40989 ft | 490 kts | 28° |
| 2026-04-27 14:56 | -43.44670 | -65.43982 | 40992 ft | 491 kts | 28° |
| 2026-04-27 14:57 | -43.38752 | -65.39298 | 40989 ft | 491 kts | 28° |
| 2026-04-27 14:57 | -43.32832 | -65.34624 | 40989 ft | 491 kts | 28° |
| 2026-04-27 14:58 | -43.26910 | -65.29959 | 40988 ft | 491 kts | 28° |
| 2026-04-27 14:58 | -43.20974 | -65.25306 | 40990 ft | 491 kts | 27° |
| 2026-04-27 14:59 | -43.14947 | -65.20870 | 40991 ft | 491 kts | 27° |
| 2026-04-27 14:59 | -43.08939 | -65.16431 | 40991 ft | 491 kts | 27° |
| 2026-04-27 15:00 | -43.02963 | -65.12024 | 40991 ft | 491 kts | 27° |
| 2026-04-27 15:00 | -42.96947 | -65.07596 | 40989 ft | 491 kts | 27° |
| 2026-04-27 15:01 | -42.90929 | -65.03177 | 41000 ft | 491 kts | 26° |
| 2026-04-27 15:01 | -42.84908 | -64.98766 | 40996 ft | 491 kts | 27° |
| 2026-04-27 15:02 | -42.78878 | -64.94358 | 40997 ft | 491 kts | 27° |
| 2026-04-27 15:02 | -42.72844 | -64.89957 | 40999 ft | 491 kts | 26° |
| 2026-04-27 15:03 | -42.66817 | -64.85571 | 40999 ft | 491 kts | 26° |
| 2026-04-27 15:03 | -42.60829 | -64.81222 | 41000 ft | 491 kts | 26° |
| 2026-04-27 15:04 | -42.54790 | -64.76847 | 41003 ft | 492 kts | 26° |
| 2026-04-27 15:04 | -42.48744 | -64.72476 | 41004 ft | 492 kts | 26° |
| 2026-04-27 15:05 | -42.42694 | -64.68110 | 41006 ft | 492 kts | 26° |
| 2026-04-27 15:05 | -42.36622 | -64.63818 | 41002 ft | 492 kts | 25° |
| 2026-04-27 15:06 | -42.30529 | -64.59630 | 41009 ft | 491 kts | 25° |
| 2026-04-27 15:06 | -42.24439 | -64.55440 | 41019 ft | 491 kts | 25° |
| 2026-04-27 15:07 | -42.18345 | -64.51257 | 41016 ft | 491 kts | 25° |
| 2026-04-27 15:07 | -42.12242 | -64.47077 | 41027 ft | 491 kts | 25° |
| 2026-04-27 15:08 | -42.06149 | -64.42914 | 41029 ft | 491 kts | 25° |
| 2026-04-27 15:08 | -42.00048 | -64.38753 | 41029 ft | 491 kts | 25° |
| 2026-04-27 15:09 | -41.93949 | -64.34602 | 41011 ft | 490 kts | 25° |
| 2026-04-27 15:09 | -41.87883 | -64.30482 | 41007 ft | 488 kts | 25° |
| 2026-04-27 15:10 | -41.81820 | -64.26375 | 41012 ft | 488 kts | 25° |
| 2026-04-27 15:10 | -41.75797 | -64.22302 | 41018 ft | 488 kts | 25° |
| 2026-04-27 15:11 | -41.69731 | -64.18209 | 41015 ft | 488 kts | 25° |
| 2026-04-27 15:11 | -41.63657 | -64.14119 | 41024 ft | 488 kts | 25° |
| 2026-04-27 15:12 | -41.57588 | -64.10042 | 41028 ft | 488 kts | 25° |
| 2026-04-27 15:12 | -41.51521 | -64.05975 | 41025 ft | 488 kts | 25° |
| 2026-04-27 15:13 | -41.45447 | -64.01911 | 41029 ft | 488 kts | 25° |
| 2026-04-27 15:13 | -41.39379 | -63.97860 | 41037 ft | 488 kts | 24° |
| 2026-04-27 15:14 | -41.33311 | -63.93817 | 41035 ft | 487 kts | 24° |
| 2026-04-27 15:14 | -41.27245 | -63.89784 | 41033 ft | 487 kts | 24° |
| 2026-04-27 15:15 | -41.21219 | -63.85786 | 41038 ft | 487 kts | 24° |
| 2026-04-27 15:15 | -41.15153 | -63.81770 | 41046 ft | 487 kts | 24° |
| 2026-04-27 15:16 | -41.09087 | -63.77763 | 41047 ft | 487 kts | 24° |
| 2026-04-27 15:16 | -41.03024 | -63.73765 | 41043 ft | 487 kts | 24° |
| 2026-04-27 15:17 | -40.96953 | -63.69769 | 41048 ft | 487 kts | 24° |
| 2026-04-27 15:17 | -40.90904 | -63.65712 | 41041 ft | 488 kts | 27° |
| 2026-04-27 15:18 | -40.84957 | -63.61372 | 41046 ft | 489 kts | 26° |
| 2026-04-27 15:18 | -40.78987 | -63.57069 | 41045 ft | 489 kts | 26° |
| 2026-04-27 15:19 | -40.73019 | -63.52778 | 41048 ft | 488 kts | 26° |
| 2026-04-27 15:19 | -40.67050 | -63.48495 | 41047 ft | 488 kts | 26° |
| 2026-04-27 15:20 | -40.61089 | -63.44228 | 41055 ft | 488 kts | 26° |
| 2026-04-27 15:20 | -40.55120 | -63.39963 | 41052 ft | 488 kts | 26° |
| 2026-04-27 15:21 | -40.49150 | -63.35706 | 41057 ft | 488 kts | 26° |
| 2026-04-27 15:21 | -40.44184 | -63.32172 | 41053 ft | 488 kts | 26° |
| 2026-04-27 15:22 | -40.38217 | -63.27934 | 41054 ft | 488 kts | 26° |